Time;durP1;ratioP1;P1;durP2;ratioP2;P2;SDS_P1;SDS_P2;PMS_P1;PMS_P2;Temp;Humidity;BMP_temperature;BMP_pressure;BME280_temperature;BME280_humidity;BME280_pressure;Samples;Min_cycle;Max_cycle;Signal;HPM_P1;HPM_P2
2023/04/01 00:01:16;;;;;;;7.28;5.63;;;11.90;99.90;;;;;;6102356;23;90922;-75
2023/04/01 00:03:44;;;;;;;7.53;6.50;;;11.80;99.90;;;;;;6102526;23;88487;-75
2023/04/01 00:06:14;;;;;;;7.28;6.53;;;11.80;99.90;;;;;;6129101;23;88454;-76
2023/04/01 00:08:41;;;;;;;9.32;7.13;;;11.80;99.90;;;;;;6077792;23;89838;-76
2023/04/01 00:11:09;;;;;;;7.15;6.45;;;11.90;99.90;;;;;;6077685;23;90974;-75
2023/04/01 00:13:36;;;;;;;7.25;6.55;;;11.80;99.90;;;;;;6077590;23;95960;-75
2023/04/01 00:16:04;;;;;;;7.93;6.88;;;11.90;99.90;;;;;;6101755;23;91976;-75
2023/04/01 00:18:39;;;;;;;8.60;6.28;;;11.80;99.90;;;;;;6102338;23;89305;-75
2023/04/01 00:21:06;;;;;;;8.52;6.55;;;11.80;99.90;;;;;;6128363;23;90271;-75
2023/04/01 00:23:34;;;;;;;8.57;7.30;;;11.80;99.90;;;;;;6102523;23;88610;-75
2023/04/01 00:26:03;;;;;;;8.07;6.82;;;11.80;99.90;;;;;;6128342;23;88474;-75
2023/04/01 00:28:30;;;;;;;10.65;8.70;;;11.80;99.90;;;;;;6102699;23;87908;-75
2023/04/01 00:30:57;;;;;;;8.52;7.13;;;11.90;99.90;;;;;;6102337;23;90947;-75
2023/04/01 00:33:24;;;;;;;11.60;8.02;;;11.80;99.90;;;;;;6128764;23;88560;-75
2023/04/01 00:35:51;;;;;;;10.13;7.32;;;11.90;99.90;;;;;;6053198;23;91282;-75
2023/04/01 00:38:18;;;;;;;8.95;7.63;;;11.80;99.90;;;;;;6077250;23;89306;-75
2023/04/01 00:40:46;;;;;;;9.40;7.72;;;11.80;99.90;;;;;;6128320;23;90285;-75
2023/04/01 00:43:20;;;;;;;10.80;8.07;;;11.80;99.90;;;;;;6077580;23;91676;-75
2023/04/01 00:45:49;;;;;;;9.57;8.57;;;11.80;99.90;;;;;;6077410;23;89902;-75
2023/04/01 00:48:22;;;;;;;10.73;8.23;;;11.80;99.90;;;;;;6077590;23;88506;-75
2023/04/01 00:50:54;;;;;;;12.37;8.47;;;11.90;99.90;;;;;;6101563;23;91059;-75
2023/04/01 00:53:22;;;;;;;9.88;8.40;;;11.80;99.90;;;;;;6128705;23;88692;-75
2023/04/01 00:55:58;;;;;;;9.35;7.28;;;11.80;99.90;;;;;;6077663;23;91145;-75
2023/04/01 00:58:27;;;;;;;10.55;8.23;;;11.80;99.90;;;;;;6102343;23;89311;-75
2023/04/01 01:00:56;;;;;;;11.15;8.75;;;11.70;99.90;;;;;;6101542;23;90894;-75
2023/04/01 01:03:23;;;;;;;9.57;7.32;;;11.70;99.90;;;;;;6101295;23;91859;-75
2023/04/01 01:05:50;;;;;;;12.35;8.40;;;11.70;99.90;;;;;;6101518;23;91035;-75
2023/04/01 01:08:32;;;;;;;10.95;8.30;;;11.70;99.90;;;;;;6128504;23;87943;-75
2023/04/01 01:10:59;;;;;;;11.20;8.05;;;11.70;99.90;;;;;;6077076;23;90835;-75
2023/04/01 01:13:46;;;;;;;10.10;8.23;;;11.60;99.90;;;;;;6101858;23;91289;-75
2023/04/01 01:16:23;;;;;;;10.05;7.57;;;11.70;99.90;;;;;;6077363;23;91061;-75
2023/04/01 01:18:50;;;;;;;9.55;7.38;;;11.60;99.90;;;;;;6102268;23;87910;-75
2023/04/01 01:21:55;;;;;;;11.18;8.00;;;11.60;99.90;;;;;;6102332;23;90938;-75
2023/04/01 01:24:25;;;;;;;;;;;11.60;99.90;;;;;;6102592;23;91458;-75
2023/04/01 01:27:05;;;;;;;9.82;7.25;;;11.40;99.90;;;;;;6129650;23;88014;-75
2023/04/01 01:29:57;;;;;;;10.02;6.68;;;11.50;99.90;;;;;;6101528;23;88746;-75
2023/04/01 01:32:24;;;;;;;9.93;7.15;;;11.50;99.90;;;;;;6102158;23;90382;-75
2023/04/01 01:35:22;;;;;;;12.30;7.63;;;11.50;99.90;;;;;;6101726;23;91061;-75
2023/04/01 01:37:55;;;;;;;11.65;7.65;;;11.50;99.90;;;;;;6101535;23;90517;-75
2023/04/01 01:40:23;;;;;;;9.65;7.68;;;11.50;99.90;;;;;;6077677;23;89203;-75
2023/04/01 01:42:54;;;;;;;8.45;7.45;;;11.60;99.90;;;;;;6128371;23;88250;-75
2023/04/01 01:45:25;;;;;;;9.18;7.00;;;11.60;99.90;;;;;;6101784;23;91186;-75
2023/04/01 01:47:53;;;;;;;10.85;7.13;;;11.60;99.90;;;;;;6101837;23;89400;-75
2023/04/01 01:50:22;;;;;;;9.43;7.65;;;11.60;99.90;;;;;;6128390;23;87864;-75
2023/04/01 01:52:49;;;;;;;11.13;8.40;;;11.60;99.90;;;;;;6102175;23;88366;-75
2023/04/01 01:55:33;;;;;;;11.20;8.18;;;11.60;99.90;;;;;;6100946;23;91365;-75
2023/04/01 01:58:32;;;;;;;10.15;8.07;;;11.70;99.90;;;;;;6101747;23;91640;-75
2023/04/01 02:01:01;;;;;;;10.18;8.35;;;11.70;99.90;;;;;;6100439;23;89312;-75
2023/04/01 02:03:33;;;;;;;13.52;9.13;;;11.60;99.90;;;;;;6077214;23;89674;-75
2023/04/01 02:06:04;;;;;;;12.10;9.10;;;11.70;99.90;;;;;;6077037;23;91273;-75
2023/04/01 02:08:40;;;;;;;14.85;9.95;;;11.70;99.90;;;;;;6101412;23;89625;-75
2023/04/01 02:11:13;;;;;;;10.73;8.65;;;11.70;99.90;;;;;;6077042;23;89099;-75
2023/04/01 02:13:58;;;;;;;13.57;9.35;;;11.70;99.90;;;;;;6101623;23;90311;-75
2023/04/01 02:16:34;;;;;;;11.80;9.07;;;11.70;99.90;;;;;;6101790;23;91658;-75
2023/04/01 02:19:07;;;;;;;11.85;9.48;;;11.70;99.90;;;;;;6077423;23;90829;-75
2023/04/01 02:21:35;;;;;;;12.57;8.63;;;11.70;99.90;;;;;;6101596;23;89465;-75
2023/04/01 02:24:09;;;;;;;11.98;9.18;;;11.70;99.90;;;;;;6077719;23;88332;-75
2023/04/01 02:26:36;;;;;;;12.68;9.40;;;11.70;99.90;;;;;;6101740;23;91372;-75
2023/04/01 02:29:06;;;;;;;14.38;10.13;;;11.70;99.90;;;;;;6101298;23;91095;-75
2023/04/01 02:31:34;;;;;;;13.55;9.93;;;11.70;99.90;;;;;;6076557;23;89022;-75
2023/04/01 02:34:03;;;;;;;12.85;9.98;;;11.70;99.90;;;;;;6101215;23;90591;-75
2023/04/01 02:36:31;;;;;;;16.88;10.80;;;11.70;99.90;;;;;;6076063;23;91179;-75
2023/04/01 02:39:04;;;;;;;15.73;9.95;;;11.70;99.90;;;;;;6127263;23;88402;-75
2023/04/01 02:41:31;;;;;;;15.55;9.65;;;11.70;99.90;;;;;;6101638;23;91495;-75
2023/04/01 02:43:59;;;;;;;14.77;9.48;;;11.60;99.90;;;;;;6101471;23;91022;-75
2023/04/01 02:46:26;;;;;;;16.70;10.02;;;11.60;99.90;;;;;;6100545;23;92137;-75
2023/04/01 02:48:53;;;;;;;15.68;9.63;;;11.60;99.90;;;;;;6100618;23;91969;-75
2023/04/01 02:51:20;;;;;;;11.98;8.27;;;11.60;99.90;;;;;;6101124;23;90471;-75
2023/04/01 02:53:47;;;;;;;18.75;10.32;;;11.50;99.90;;;;;;6101306;23;90785;-75
2023/04/01 02:56:14;;;;;;;14.18;9.00;;;11.50;99.90;;;;;;6075718;23;91059;-75
2023/04/01 02:58:41;;;;;;;15.43;8.90;;;11.50;99.90;;;;;;6101237;23;91033;-75
2023/04/01 03:01:08;;;;;;;14.82;8.52;;;11.50;99.90;;;;;;6101145;23;88767;-75
2023/04/01 03:03:35;;;;;;;13.95;9.20;;;11.50;99.90;;;;;;6128315;23;88099;-75
2023/04/01 03:06:07;;;;;;;15.45;8.93;;;11.50;99.90;;;;;;6101225;23;91395;-75
2023/04/01 03:08:35;;;;;;;13.23;9.07;;;11.50;99.90;;;;;;6101447;23;89969;-75
2023/04/01 03:11:02;;;;;;;12.35;8.68;;;11.50;99.90;;;;;;6127059;23;88742;-75
2023/04/01 03:13:30;;;;;;;13.05;9.02;;;11.40;99.90;;;;;;6100839;23;90316;-75
2023/04/01 03:15:57;;;;;;;14.65;10.40;;;11.50;99.90;;;;;;6076407;23;95189;-75
2023/04/01 03:18:24;;;;;;;15.27;9.05;;;11.50;99.90;;;;;;6075747;23;92068;-75
2023/04/01 03:20:51;;;;;;;16.02;9.95;;;11.50;99.90;;;;;;6076956;23;91226;-75
2023/04/01 03:23:20;;;;;;;16.88;10.38;;;11.50;99.90;;;;;;6101467;23;88450;-75
2023/04/01 03:25:47;;;;;;;14.55;10.45;;;11.40;99.90;;;;;;6076107;23;91332;-75
2023/04/01 03:28:16;;;;;;;14.98;9.85;;;11.50;99.90;;;;;;6101437;23;92033;-75
2023/04/01 03:30:43;;;;;;;17.30;11.18;;;11.40;99.90;;;;;;6102035;23;90330;-75
2023/04/01 03:33:10;;;;;;;18.52;10.52;;;11.40;99.90;;;;;;6101131;23;90591;-75
2023/04/01 03:35:37;;;;;;;17.00;10.30;;;11.40;99.90;;;;;;6101306;23;91876;-75
2023/04/01 03:38:05;;;;;;;15.40;10.25;;;11.50;99.90;;;;;;6077083;23;91919;-75
2023/04/01 03:40:32;;;;;;;18.00;11.48;;;11.40;99.90;;;;;;6101195;23;91334;-75
2023/04/01 03:43:00;;;;;;;18.23;10.85;;;11.40;99.90;;;;;;6101329;23;90504;-75
2023/04/01 03:45:27;;;;;;;19.33;11.60;;;11.40;99.90;;;;;;6076853;23;91393;-75
2023/04/01 03:47:54;;;;;;;17.05;10.75;;;11.30;99.90;;;;;;6101092;23;90249;-75
2023/04/01 03:50:21;;;;;;;18.33;10.80;;;11.40;99.90;;;;;;6101128;23;91757;-75
2023/04/01 03:52:48;;;;;;;19.75;11.13;;;11.30;99.90;;;;;;6077220;23;90997;-75
2023/04/01 03:55:16;;;;;;;21.65;11.55;;;11.30;99.90;;;;;;6101112;23;91311;-75
2023/04/01 03:57:43;;;;;;;21.88;12.38;;;11.40;99.90;;;;;;6101269;23;91792;-75
2023/04/01 04:00:17;;;;;;;;;;;11.40;99.90;;;;;;6078505;23;91424;-75
2023/04/01 04:02:48;;;;;;;19.90;12.50;;;11.30;99.90;;;;;;6103589;23;90570;-75
2023/04/01 04:05:20;;;;;;;19.92;11.77;;;11.30;99.90;;;;;;6100867;23;91031;-75
2023/04/01 04:07:47;;;;;;;20.00;11.63;;;11.30;99.90;;;;;;6101316;23;91715;-75
2023/04/01 04:10:14;;;;;;;24.55;12.98;;;11.40;99.90;;;;;;6076309;23;89994;-75
2023/04/01 04:12:41;;;;;;;22.48;12.98;;;11.40;99.90;;;;;;6101441;23;90665;-76
2023/04/01 04:15:10;;;;;;;23.98;13.15;;;11.40;99.90;;;;;;6101431;23;91691;-75
2023/04/01 04:17:37;;;;;;;29.00;15.63;;;11.40;99.90;;;;;;6076650;23;91914;-75
2023/04/01 04:20:05;;;;;;;22.60;14.05;;;11.40;99.90;;;;;;6076851;23;90350;-75
2023/04/01 04:22:32;;;;;;;25.45;13.90;;;11.40;99.90;;;;;;6076821;23;90695;-75
2023/04/01 04:24:59;;;;;;;25.70;13.38;;;11.40;99.90;;;;;;6100939;23;91687;-75
2023/04/01 04:27:26;;;;;;;22.55;13.55;;;11.40;99.90;;;;;;6100820;23;91820;-75
2023/04/01 04:30:03;;;;;;;24.42;14.57;;;11.30;99.90;;;;;;6056132;23;91106;-75
2023/04/01 04:32:30;;;;;;;23.70;13.75;;;11.30;99.90;;;;;;6100879;23;90811;-75
2023/04/01 04:34:57;;;;;;;27.30;14.52;;;11.30;99.90;;;;;;6101172;23;91245;-75
2023/04/01 04:37:25;;;;;;;21.85;14.00;;;11.30;99.90;;;;;;6076084;23;91663;-75
2023/04/01 04:39:52;;;;;;;20.85;12.75;;;11.20;99.90;;;;;;6101110;23;91448;-75
2023/04/01 04:42:19;;;;;;;20.70;12.10;;;11.20;99.90;;;;;;6076695;23;89551;-76
2023/04/01 04:44:46;;;;;;;17.77;10.07;;;11.20;99.90;;;;;;6076685;23;91075;-75
2023/04/01 04:47:14;;;;;;;15.70;9.48;;;11.10;99.90;;;;;;6127714;23;89090;-75
2023/04/01 04:49:41;;;;;;;14.48;9.23;;;11.10;99.90;;;;;;6076878;23;91381;-76
2023/04/01 04:52:09;;;;;;;17.20;9.27;;;11.10;99.90;;;;;;6101975;23;90438;-75
2023/04/01 04:54:36;;;;;;;16.02;9.30;;;11.10;99.90;;;;;;6077424;23;91556;-75
2023/04/01 04:57:04;;;;;;;16.73;9.25;;;11.10;99.90;;;;;;6077637;23;90938;-75
2023/04/01 04:59:37;;;;;;;18.00;9.38;;;11.10;99.90;;;;;;6078244;23;88968;-75
2023/04/01 05:02:11;;;;;;;18.00;9.63;;;11.10;99.90;;;;;;6101743;23;90503;-75
2023/04/01 05:04:38;;;;;;;20.23;10.82;;;11.00;99.90;;;;;;6077300;23;91305;-75
2023/04/01 05:07:08;;;;;;;17.85;10.13;;;11.00;99.90;;;;;;6101291;23;91880;-75
2023/04/01 05:09:35;;;;;;;17.80;10.30;;;11.00;99.90;;;;;;6101132;23;88900;-75
2023/04/01 05:12:03;;;;;;;23.17;11.82;;;11.00;99.90;;;;;;6100899;23;90916;-75
2023/04/01 05:14:48;;;;;;;23.77;12.35;;;11.00;99.90;;;;;;6100571;23;90307;-75
2023/04/01 05:17:15;;;;;;;24.13;10.73;;;10.90;99.90;;;;;;6100844;23;91793;-76
2023/04/01 05:19:42;;;;;;;25.10;12.00;;;10.90;99.90;;;;;;6100722;23;91670;-75
2023/04/01 05:22:09;;;;;;;23.70;12.43;;;11.00;99.90;;;;;;6127444;23;88404;-76
2023/04/01 05:24:37;;;;;;;26.52;12.30;;;10.90;99.90;;;;;;6100427;23;89758;-76
2023/04/01 05:27:04;;;;;;;30.00;13.98;;;10.90;99.90;;;;;;6100741;23;92084;-75
2023/04/01 05:29:32;;;;;;;39.75;15.15;;;10.80;99.90;;;;;;6100584;23;91229;-76
2023/04/01 05:32:04;;;;;;;39.27;18.43;;;10.90;99.90;;;;;;6101435;23;89611;-76
2023/04/01 05:34:31;;;;;;;42.00;16.55;;;10.80;99.90;;;;;;6076077;23;91100;-76
2023/04/01 05:36:58;;;;;;;41.67;15.27;;;10.80;99.90;;;;;;6100924;23;91650;-75
2023/04/01 05:39:26;;;;;;;37.67;16.23;;;10.70;99.90;;;;;;6076466;23;91600;-75
2023/04/01 05:41:53;;;;;;;35.03;16.10;;;10.70;99.90;;;;;;6100874;23;90636;-75
2023/04/01 05:44:20;;;;;;;43.85;16.98;;;10.70;99.90;;;;;;6100753;23;90712;-76
2023/04/01 05:47:03;;;;;;;61.20;17.20;;;10.70;99.90;;;;;;6127281;23;89248;-76
2023/04/01 05:49:32;;;;;;;48.00;17.48;;;10.70;99.90;;;;;;6099997;23;91226;-75
2023/04/01 05:52:00;;;;;;;48.22;17.77;;;10.70;99.90;;;;;;6076387;23;89287;-75
2023/04/01 05:54:27;;;;;;;57.90;19.50;;;10.70;99.90;;;;;;6100570;23;91182;-75
2023/04/01 05:56:54;;;;;;;48.20;18.85;;;10.70;99.90;;;;;;6076480;23;91859;-75
2023/04/01 05:59:21;;;;;;;47.05;20.73;;;10.70;99.90;;;;;;6100896;23;90026;-75
2023/04/01 06:01:49;;;;;;;61.05;19.33;;;10.70;99.90;;;;;;6100579;23;90902;-75
2023/04/01 06:04:17;;;;;;;66.75;19.58;;;10.70;99.90;;;;;;6100450;23;91159;-75
2023/04/01 06:06:45;;;;;;;57.25;18.48;;;10.70;99.90;;;;;;6100274;23;91804;-75
2023/04/01 06:09:27;;;;;;;47.83;18.38;;;10.70;99.90;;;;;;6076367;23;91342;-75
2023/04/01 06:12:10;;;;;;;50.10;17.85;;;10.80;99.90;;;;;;6100776;23;91539;-75
2023/04/01 06:15:10;;;;;;;44.92;17.50;;;10.80;99.90;;;;;;6100652;23;91126;-75
2023/04/01 06:17:52;;;;;;;64.45;19.27;;;10.80;99.90;;;;;;6101022;23;88891;-75
2023/04/01 06:20:57;;;;;;;40.63;17.73;;;10.90;99.90;;;;;;6100840;23;91358;-75
2023/04/01 06:23:30;;;;;;;41.90;16.60;;;10.90;99.90;;;;;;6101014;23;90850;-76
2023/04/01 06:26:12;;;;;;;47.78;17.85;;;10.90;99.90;;;;;;6076338;23;91237;-76
2023/04/01 06:28:49;;;;;;;41.25;18.02;;;11.00;99.90;;;;;;6076116;23;91738;-76
2023/04/01 06:31:43;;;;;;;51.30;17.90;;;11.00;99.90;;;;;;6100773;23;91437;-76
2023/04/01 06:34:17;;;;;;;56.85;18.40;;;11.10;99.90;;;;;;6100782;23;91043;-76
2023/04/01 06:36:53;;;;;;;59.33;19.35;;;11.10;99.90;;;;;;6076106;23;89833;-75
2023/04/01 06:39:23;;;;;;;43.22;15.77;;;11.20;99.90;;;;;;6100534;23;91647;-76
2023/04/01 06:42:20;;;;;;;47.15;17.75;;;11.20;99.90;;;;;;6075598;23;91437;-76
2023/04/01 06:45:34;;;;;;;68.70;18.02;;;11.30;99.90;;;;;;6100473;23;90555;-76
2023/04/01 06:48:45;;;;;;;56.90;18.33;;;11.40;99.90;;;;;;6105696;23;90329;-75
2023/04/01 06:51:48;;;;;;;37.23;16.83;;;11.50;99.90;;;;;;6127447;23;88838;-75
2023/04/01 06:54:48;;;;;;;35.58;15.82;;;11.60;99.90;;;;;;6126510;22;89791;-75
2023/04/01 06:57:46;;;;;;;35.60;17.35;;;11.70;99.90;;;;;;6102105;23;89256;-75
2023/04/01 07:00:30;;;;;;;41.15;17.25;;;11.90;99.90;;;;;;6075819;23;91977;-76
2023/04/01 07:03:08;;;;;;;;;;;12.00;99.90;;;;;;6100434;23;90526;-75
2023/04/01 07:05:35;;;;;;;34.30;15.88;;;12.00;99.90;;;;;;6078546;23;91099;-75
2023/04/01 07:08:10;;;;;;;26.60;15.82;;;12.10;99.90;;;;;;6100196;23;90837;-75
2023/04/01 07:11:01;;;;;;;29.45;15.95;;;12.30;99.90;;;;;;6100145;23;91000;-75
2023/04/01 07:14:22;;;;;;;32.40;15.68;;;12.40;99.90;;;;;;6126554;23;90308;-76
2023/04/01 07:17:06;;;;;;;25.67;14.73;;;12.40;99.90;;;;;;6100115;23;90015;-75
2023/04/01 07:19:45;;;;;;;27.70;14.30;;;12.50;99.90;;;;;;6100621;23;91001;-75
2023/04/01 07:22:33;;;;;;;24.85;13.68;;;12.50;99.90;;;;;;6126765;23;88780;-75
2023/04/01 07:25:43;;;;;;;24.23;13.93;;;12.50;99.90;;;;;;6125772;23;90060;-75
2023/04/01 07:28:33;;;;;;;18.65;12.30;;;12.50;99.90;;;;;;6126425;23;88771;-75
2023/04/01 07:31:30;;;;;;;18.27;11.40;;;12.40;99.90;;;;;;6104039;23;89228;-75
2023/04/01 07:34:36;;;;;;;20.25;12.05;;;12.30;99.90;;;;;;6075715;23;91006;-76
2023/04/01 07:37:10;;;;;;;20.10;11.63;;;12.40;99.90;;;;;;6069952;23;91419;-75
2023/04/01 07:39:45;;;;;;;18.02;10.55;;;12.40;99.90;;;;;;6099952;23;89917;-75
2023/04/01 07:42:54;;;;;;;16.20;10.75;;;12.40;99.90;;;;;;6099940;23;90329;-75
2023/04/01 07:45:41;;;;;;;14.30;9.00;;;12.40;99.90;;;;;;6057504;23;91414;-75
2023/04/01 07:48:33;;;;;;;16.50;9.65;;;12.40;99.90;;;;;;6100935;23;90498;-75
2023/04/01 07:51:27;;;;;;;14.93;9.45;;;12.40;99.90;;;;;;6076997;23;89618;-75
2023/04/01 07:54:23;;;;;;;15.25;10.30;;;12.40;99.90;;;;;;6084498;23;90962;-75
2023/04/01 07:57:11;;;;;;;17.35;9.85;;;12.40;99.90;;;;;;6062245;23;92137;-75
2023/04/01 08:00:18;;;;;;;15.40;10.05;;;12.30;99.90;;;;;;6100679;23;91721;-75
2023/04/01 08:03:29;;;;;;;14.10;8.55;;;12.30;99.90;;;;;;6080780;23;88993;-75
2023/04/01 08:06:18;;;;;;;18.13;9.75;;;12.10;99.90;;;;;;6076057;23;90381;-75
2023/04/01 08:08:54;;;;;;;13.30;9.27;;;12.20;99.90;;;;;;6076292;23;91500;-76
2023/04/01 08:12:10;;;;;;;14.43;8.98;;;12.10;99.90;;;;;;6103878;23;88388;-75
2023/04/01 08:15:27;;;;;;;14.23;9.07;;;12.20;99.90;;;;;;6092406;23;87960;-75
2023/04/01 08:18:26;;;;;;;15.60;9.25;;;12.20;99.90;;;;;;6102797;23;90621;-75
2023/04/01 08:21:00;;;;;;;16.20;9.90;;;12.20;99.90;;;;;;6101953;23;91254;-75
2023/04/01 08:23:38;;;;;;;15.25;9.43;;;12.20;99.90;;;;;;6128678;23;88593;-75
2023/04/01 08:26:20;;;;;;;17.38;9.50;;;12.30;99.90;;;;;;6101276;23;88720;-75
2023/04/01 08:29:03;;;;;;;15.13;9.05;;;12.40;99.90;;;;;;6102164;23;90693;-75
2023/04/01 08:31:39;;;;;;;12.80;10.20;;;12.40;99.90;;;;;;6102075;23;91461;-75
2023/04/01 08:34:13;;;;;;;;;;;12.50;99.90;;;;;;6101481;23;90639;-75
2023/04/01 08:36:46;;;;;;;11.70;9.13;;;12.40;99.90;;;;;;6103633;23;91391;-76
2023/04/01 08:39:50;;;;;;;13.57;9.45;;;12.50;99.90;;;;;;6102230;23;90751;-75
2023/04/01 08:43:07;;;;;;;12.30;9.60;;;12.70;99.90;;;;;;6097115;23;90654;-75
2023/04/01 08:45:40;;;;;;;12.23;9.77;;;12.90;99.90;;;;;;6078175;23;90986;-75
2023/04/01 08:48:22;;;;;;;13.68;9.93;;;13.00;99.90;;;;;;6101892;23;89078;-75
2023/04/01 08:51:33;;;;;;;12.23;10.18;;;13.00;99.90;;;;;;6102072;23;90545;-75
2023/04/01 08:54:03;;;;;;;10.45;8.00;;;13.10;99.90;;;;;;5931652;23;91979;-75
2023/04/01 08:56:41;;;;;;;11.23;9.55;;;13.00;99.90;;;;;;5980036;23;89179;-75
2023/04/01 08:59:15;;;;;;;10.95;8.80;;;13.10;99.90;;;;;;6047297;23;89643;-75
2023/04/01 09:02:08;;;;;;;12.20;10.10;;;13.20;99.90;;;;;;6101840;23;90768;-76
2023/04/01 09:05:22;;;;;;;11.75;9.15;;;13.40;99.90;;;;;;6101139;23;91149;-75
2023/04/01 09:08:29;;;;;;;10.63;9.32;;;13.40;99.90;;;;;;6101964;23;90808;-75
2023/04/01 09:11:10;;;;;;;10.65;8.27;;;13.60;99.90;;;;;;6101542;23;89127;-75
2023/04/01 09:14:41;;;;;;;9.98;8.98;;;13.50;99.90;;;;;;6128491;23;89213;-76
2023/04/01 09:17:34;;;;;;;9.57;8.23;;;13.50;99.90;;;;;;6101719;23;91118;-75
2023/04/01 09:20:01;;;;;;;10.40;9.30;;;13.30;99.90;;;;;;6101602;23;91225;-75
2023/04/01 09:22:47;;;;;;;10.00;8.93;;;13.40;99.90;;;;;;6101421;23;89548;-75
2023/04/01 09:25:31;;;;;;;9.40;8.20;;;13.60;99.90;;;;;;6077172;23;89648;-75
2023/04/01 09:28:24;;;;;;;9.77;8.68;;;13.60;99.90;;;;;;6101648;23;91026;-75
2023/04/01 09:31:14;;;;;;;9.63;8.68;;;13.60;99.90;;;;;;6102050;23;90791;-75
2023/04/01 09:34:04;;;;;;;11.90;9.38;;;13.70;99.90;;;;;;6127871;23;87893;-75
2023/04/01 09:37:14;;;;;;;15.00;10.40;;;13.90;99.90;;;;;;6101584;23;89371;-76
2023/04/01 09:40:07;;;;;;;10.70;9.45;;;13.80;99.90;;;;;;6100982;23;91068;-76
2023/04/01 09:42:53;;;;;;;12.57;11.27;;;13.60;99.90;;;;;;6128939;23;88536;-76
2023/04/01 09:45:53;;;;;;;12.48;11.18;;;13.40;99.90;;;;;;6101060;23;89148;-75
2023/04/01 09:48:35;;;;;;;12.18;10.60;;;13.40;99.90;;;;;;6100720;23;90883;-75
2023/04/01 09:51:32;;;;;;;10.93;9.82;;;13.20;99.90;;;;;;6100430;23;92158;-75
2023/04/01 09:54:14;;;;;;;11.68;9.50;;;13.30;99.90;;;;;;6027308;23;91277;-75
2023/04/01 09:57:14;;;;;;;9.57;8.10;;;13.50;99.90;;;;;;6077514;23;89126;-75
2023/04/01 10:00:03;;;;;;;7.50;6.80;;;13.70;99.90;;;;;;6082878;23;89327;-75
2023/04/01 10:03:18;;;;;;;7.13;6.43;;;13.70;99.90;;;;;;6127475;23;88232;-75
2023/04/01 10:06:16;;;;;;;6.07;5.57;;;13.60;99.90;;;;;;6128323;23;88005;-76
2023/04/01 10:08:52;;;;;;;5.78;5.28;;;13.70;99.90;;;;;;6077582;23;89105;-75
2023/04/01 10:11:21;;;;;;;5.75;5.25;;;13.70;99.90;;;;;;6101722;23;90570;-75
2023/04/01 10:14:14;;;;;;;5.22;4.72;;;13.70;99.90;;;;;;6101481;23;90969;-75
2023/04/01 10:16:56;;;;;;;3.92;3.63;;;13.70;99.90;;;;;;6101906;23;91018;-75
2023/04/01 10:19:23;;;;;;;4.35;4.03;;;13.80;99.90;;;;;;6100891;23;89383;-75
2023/04/01 10:22:00;;;;;;;5.65;5.07;;;13.80;99.90;;;;;;6101589;23;90774;-75
2023/04/01 10:24:31;;;;;;;6.72;6.10;;;13.80;99.90;;;;;;6077103;23;89586;-76
2023/04/01 10:27:34;;;;;;;6.70;6.10;;;13.50;99.90;;;;;;6101682;23;90773;-76
2023/04/01 10:30:34;;;;;;;8.05;6.80;;;13.30;99.90;;;;;;6117929;23;87959;-76
2023/04/01 10:33:05;;;;;;;8.20;7.40;;;12.90;99.90;;;;;;6101230;23;89385;-76
2023/04/01 10:36:05;;;;;;;5.85;5.30;;;12.70;99.90;;;;;;6100795;23;89734;-75
2023/04/01 10:39:03;;;;;;;7.68;6.78;;;12.80;99.90;;;;;;6077730;23;91704;-75
2023/04/01 10:41:59;;;;;;;6.93;5.35;;;12.80;99.90;;;;;;6101045;23;87984;-75
2023/04/01 10:45:22;;;;;;;7.65;6.70;;;12.80;99.90;;;;;;6127950;23;89183;-76
2023/04/01 10:48:08;;;;;;;7.97;7.28;;;12.60;99.90;;;;;;6101012;23;92013;-75
2023/04/01 10:51:00;;;;;;;7.45;6.65;;;12.60;99.90;;;;;;6101297;23;91554;-75
2023/04/01 10:53:34;;;;;;;6.65;6.05;;;12.30;99.90;;;;;;6101320;23;89270;-75
2023/04/01 10:56:34;;;;;;;6.90;6.30;;;12.20;99.90;;;;;;6127641;23;87913;-76
2023/04/01 10:59:43;;;;;;;6.88;6.18;;;12.00;99.90;;;;;;6127745;23;88034;-75
2023/04/01 11:02:47;;;;;;;5.65;5.15;;;12.00;99.90;;;;;;6127681;23;87983;-75
2023/04/01 11:06:08;;;;;;;4.68;3.80;;;11.90;99.90;;;;;;6127702;23;87895;-75
2023/04/01 11:08:54;;;;;;;4.55;4.15;;;12.00;99.90;;;;;;6101157;23;90392;-75
2023/04/01 11:11:29;;;;;;;4.90;4.60;;;12.10;99.90;;;;;;6076527;23;91672;-75
2023/04/01 11:14:31;;;;;;;5.28;4.78;;;12.00;99.90;;;;;;6101331;23;90840;-75
2023/04/01 11:17:25;;;;;;;5.05;4.45;;;11.90;99.90;;;;;;6101020;23;89310;-75
2023/04/01 11:20:40;;;;;;;4.53;4.18;;;11.80;99.90;;;;;;6101298;23;90514;-75
2023/04/01 11:23:29;;;;;;;5.15;4.75;;;11.70;99.90;;;;;;6127746;23;88749;-75
2023/04/01 11:26:28;;;;;;;5.60;5.10;;;11.60;99.90;;;;;;6076846;23;91340;-75
2023/04/01 11:29:26;;;;;;;4.68;4.28;;;11.60;99.90;;;;;;6115500;23;87955;-76
2023/04/01 11:32:01;;;;;;;3.63;3.33;;;11.40;99.90;;;;;;6076994;23;89067;-75
2023/04/01 11:34:43;;;;;;;4.03;3.72;;;11.30;99.90;;;;;;6100879;23;90149;-75
2023/04/01 11:37:14;;;;;;;3.55;3.25;;;11.40;99.90;;;;;;6101582;23;90993;-75
2023/04/01 11:40:06;;;;;;;3.70;3.40;;;11.40;99.90;;;;;;6101271;23;88955;-75
2023/04/01 11:43:01;;;;;;;3.63;3.42;;;11.50;99.90;;;;;;6123787;23;89198;-75
2023/04/01 11:46:29;;;;;;;3.30;3.10;;;11.50;99.90;;;;;;6059044;23;89372;-75
2023/04/01 11:49:40;;;;;;;3.10;2.90;;;11.60;99.90;;;;;;6053545;23;92031;-75
2023/04/01 11:52:20;;;;;;;2.90;2.63;;;11.60;99.90;;;;;;6005778;23;88638;-76
2023/04/01 11:55:14;;;;;;;3.17;2.35;;;11.60;99.90;;;;;;6078010;23;91010;-75
2023/04/01 11:57:59;;;;;;;2.50;2.40;;;11.70;99.90;;;;;;6128616;23;88703;-75
2023/04/01 12:00:46;;;;;;;2.13;1.92;;;11.90;99.90;;;;;;6102347;23;88451;-75
2023/04/01 12:03:26;;;;;;;1.90;1.80;;;11.90;99.90;;;;;;6128961;23;88484;-75
2023/04/01 12:06:05;;;;;;;2.35;2.25;;;12.00;99.90;;;;;;6129229;23;87484;-75
2023/04/01 12:08:44;;;;;;;2.47;2.28;;;12.00;99.90;;;;;;6101975;23;91418;-75
2023/04/01 12:11:25;;;;;;;2.58;2.38;;;12.10;99.90;;;;;;6128372;23;88468;-75
2023/04/01 12:14:02;;;;;;;2.88;2.67;;;12.30;99.90;;;;;;6128432;23;88622;-75
2023/04/01 12:16:52;;;;;;;2.15;2.05;;;12.50;99.90;;;;;;6102002;23;90477;-75
2023/04/01 12:20:23;;;;;;;2.70;2.40;;;12.50;99.90;;;;;;6128715;23;88735;-75
2023/04/01 12:23:16;;;;;;;2.40;2.30;;;12.50;99.90;;;;;;5882978;23;88578;-75
2023/04/01 12:25:52;;;;;;;2.40;2.30;;;12.30;99.90;;;;;;6102302;23;87954;-76
2023/04/01 12:28:52;;;;;;;2.83;2.63;;;12.30;99.90;;;;;;6101891;23;90993;-75
2023/04/01 12:31:27;;;;;;;3.38;3.08;;;12.20;99.90;;;;;;6102486;23;88769;-75
2023/04/01 12:34:18;;;;;;;3.08;2.88;;;12.10;99.90;;;;;;6102431;23;91367;-75
2023/04/01 12:36:52;;;;;;;2.53;2.33;;;12.10;99.90;;;;;;6102274;23;87882;-75
2023/04/01 12:39:44;;;;;;;2.80;2.60;;;12.10;99.90;;;;;;6128695;23;88328;-75
2023/04/01 12:42:36;;;;;;;2.85;2.63;;;12.00;99.90;;;;;;6076620;23;92269;-75
2023/04/01 12:45:25;;;;;;;2.25;2.15;;;12.10;99.90;;;;;;6101947;23;89295;-75
2023/04/01 12:48:19;;;;;;;2.75;2.55;;;12.20;99.90;;;;;;6102238;23;89269;-75
2023/04/01 12:51:21;;;;;;;2.58;2.42;;;12.10;99.90;;;;;;6128296;23;88347;-75
2023/04/01 12:54:17;;;;;;;2.40;2.30;;;12.10;99.90;;;;;;6128253;23;88799;-75
2023/04/01 12:57:10;;;;;;;2.80;2.60;;;12.10;99.90;;;;;;6128187;23;88896;-75
2023/04/01 12:59:56;;;;;;;2.50;2.40;;;11.90;99.90;;;;;;6101928;23;89584;-75
2023/04/01 13:02:54;;;;;;;2.38;2.28;;;11.80;99.90;;;;;;6102557;23;88205;-75
2023/04/01 13:05:58;;;;;;;2.60;2.40;;;11.70;99.90;;;;;;6065611;23;89005;-75
2023/04/01 13:08:31;;;;;;;2.77;2.57;;;11.70;99.90;;;;;;6101707;23;93343;-76
2023/04/01 13:10:58;;;;;;;3.13;2.83;;;11.60;99.90;;;;;;6127723;23;88974;-75
2023/04/01 13:13:40;;;;;;;2.55;2.40;;;11.50;99.90;;;;;;6128380;23;88353;-75
2023/04/01 13:16:14;;;;;;;2.85;2.65;;;11.70;99.90;;;;;;6101983;23;91157;-75
2023/04/01 13:18:53;;;;;;;;;;;11.70;99.90;;;;;;6128686;23;88592;-75
2023/04/01 13:21:41;;;;;;;2.20;2.10;;;11.60;99.90;;;;;;6079086;23;89362;-75
2023/04/01 13:25:00;;;;;;;2.30;2.20;;;11.60;99.90;;;;;;6128466;23;89125;-76
2023/04/01 13:27:43;;;;;;;2.53;2.33;;;11.60;99.90;;;;;;6039038;23;91328;-75
2023/04/01 13:30:49;;;;;;;2.30;2.10;;;11.50;99.90;;;;;;6128811;23;88286;-75
2023/04/01 13:33:42;;;;;;;2.90;2.70;;;11.50;99.90;;;;;;6128593;23;88440;-75
2023/04/01 13:36:49;;;;;;;3.20;3.00;;;11.40;99.90;;;;;;6102027;23;88259;-75
2023/04/01 13:39:28;;;;;;;2.97;2.55;;;11.30;99.90;;;;;;6101532;23;89442;-75
2023/04/01 13:42:07;;;;;;;2.63;2.42;;;11.30;99.90;;;;;;6101708;23;89034;-75
2023/04/01 13:44:40;;;;;;;4.10;2.78;;;11.30;99.90;;;;;;6101717;23;89891;-75
2023/04/01 13:47:28;;;;;;;2.28;2.17;;;11.20;99.90;;;;;;6128310;23;88226;-75